sensor_id;sensor_type;location;lat;lon;timestamp;P1;durP1;ratioP1;P2;durP2;ratioP2
16906;SDS011;8570;52.380;4.654;2023-04-03T00:03:17;2.47;;;2.00;;
16906;SDS011;8570;52.380;4.654;2023-04-03T00:08:21;3.77;;;2.00;;
16906;SDS011;8570;52.380;4.654;2023-04-03T00:13:24;3.03;;;1.87;;
16906;SDS011;8570;52.380;4.654;2023-04-03T00:18:26;3.03;;;2.03;;
16906;SDS011;8570;52.380;4.654;2023-04-03T00:23:29;2.80;;;2.00;;
16906;SDS011;8570;52.380;4.654;2023-04-03T00:28:31;3.23;;;2.30;;
16906;SDS011;8570;52.380;4.654;2023-04-03T00:33:34;3.90;;;2.10;;
16906;SDS011;8570;52.380;4.654;2023-04-03T00:38:37;3.17;;;2.20;;
16906;SDS011;8570;52.380;4.654;2023-04-03T00:43:40;2.57;;;1.90;;
16906;SDS011;8570;52.380;4.654;2023-04-03T00:48:42;3.47;;;1.90;;
16906;SDS011;8570;52.380;4.654;2023-04-03T00:53:49;4.27;;;2.00;;
16906;SDS011;8570;52.380;4.654;2023-04-03T00:58:58;3.80;;;1.77;;
16906;SDS011;8570;52.380;4.654;2023-04-03T01:04:03;4.53;;;2.20;;
16906;SDS011;8570;52.380;4.654;2023-04-03T01:09:07;4.93;;;2.10;;
16906;SDS011;8570;52.380;4.654;2023-04-03T01:14:11;6.80;;;2.27;;
16906;SDS011;8570;52.380;4.654;2023-04-03T01:19:14;4.03;;;2.37;;
16906;SDS011;8570;52.380;4.654;2023-04-03T01:24:23;4.20;;;2.60;;
16906;SDS011;8570;52.380;4.654;2023-04-03T01:29:33;4.03;;;2.13;;
16906;SDS011;8570;52.380;4.654;2023-04-03T01:34:36;2.83;;;1.97;;
16906;SDS011;8570;52.380;4.654;2023-04-03T01:39:39;5.40;;;2.13;;
16906;SDS011;8570;52.380;4.654;2023-04-03T01:44:42;4.40;;;1.90;;
16906;SDS011;8570;52.380;4.654;2023-04-03T01:49:46;3.23;;;2.00;;
16906;SDS011;8570;52.380;4.654;2023-04-03T01:54:48;4.20;;;1.90;;
16906;SDS011;8570;52.380;4.654;2023-04-03T01:59:50;4.57;;;1.80;;
16906;SDS011;8570;52.380;4.654;2023-04-03T02:04:53;5.43;;;2.03;;
16906;SDS011;8570;52.380;4.654;2023-04-03T02:09:55;5.37;;;2.00;;
16906;SDS011;8570;52.380;4.654;2023-04-03T02:14:57;5.47;;;2.20;;
16906;SDS011;8570;52.380;4.654;2023-04-03T02:20:02;3.73;;;2.10;;
16906;SDS011;8570;52.380;4.654;2023-04-03T02:25:05;5.87;;;1.70;;
16906;SDS011;8570;52.380;4.654;2023-04-03T02:30:07;6.37;;;2.43;;
16906;SDS011;8570;52.380;4.654;2023-04-03T02:35:12;5.73;;;2.63;;
16906;SDS011;8570;52.380;4.654;2023-04-03T02:40:14;5.97;;;2.80;;
16906;SDS011;8570;52.380;4.654;2023-04-03T02:45:16;5.10;;;2.60;;
16906;SDS011;8570;52.380;4.654;2023-04-03T02:50:19;7.13;;;2.80;;
16906;SDS011;8570;52.380;4.654;2023-04-03T02:55:21;6.37;;;2.80;;
16906;SDS011;8570;52.380;4.654;2023-04-03T03:00:23;4.67;;;2.97;;
16906;SDS011;8570;52.380;4.654;2023-04-03T03:05:26;8.57;;;3.97;;
16906;SDS011;8570;52.380;4.654;2023-04-03T03:10:28;8.30;;;3.67;;
16906;SDS011;8570;52.380;4.654;2023-04-03T03:15:30;5.57;;;3.37;;
16906;SDS011;8570;52.380;4.654;2023-04-03T03:20:33;5.97;;;3.40;;
16906;SDS011;8570;52.380;4.654;2023-04-03T03:25:37;4.60;;;3.00;;
16906;SDS011;8570;52.380;4.654;2023-04-03T03:30:39;5.47;;;3.37;;
16906;SDS011;8570;52.380;4.654;2023-04-03T03:35:43;4.60;;;2.83;;
16906;SDS011;8570;52.380;4.654;2023-04-03T03:40:46;7.10;;;3.27;;
16906;SDS011;8570;52.380;4.654;2023-04-03T03:45:49;6.53;;;3.63;;
16906;SDS011;8570;52.380;4.654;2023-04-03T03:50:54;4.43;;;2.97;;
16906;SDS011;8570;52.380;4.654;2023-04-03T03:55:56;5.77;;;3.33;;
16906;SDS011;8570;52.380;4.654;2023-04-03T04:00:59;7.67;;;3.30;;
16906;SDS011;8570;52.380;4.654;2023-04-03T04:06:03;7.20;;;3.33;;
16906;SDS011;8570;52.380;4.654;2023-04-03T04:11:05;5.83;;;3.30;;
16906;SDS011;8570;52.380;4.654;2023-04-03T04:16:07;5.77;;;3.60;;
16906;SDS011;8570;52.380;4.654;2023-04-03T04:21:11;7.97;;;4.00;;
16906;SDS011;8570;52.380;4.654;2023-04-03T04:26:13;6.30;;;3.07;;
16906;SDS011;8570;52.380;4.654;2023-04-03T04:31:15;6.97;;;3.50;;
16906;SDS011;8570;52.380;4.654;2023-04-03T04:36:18;8.73;;;4.07;;
16906;SDS011;8570;52.380;4.654;2023-04-03T04:41:20;7.50;;;3.70;;
16906;SDS011;8570;52.380;4.654;2023-04-03T04:46:23;6.83;;;3.37;;
16906;SDS011;8570;52.380;4.654;2023-04-03T04:51:26;5.87;;;3.43;;
16906;SDS011;8570;52.380;4.654;2023-04-03T04:56:28;7.73;;;3.60;;
16906;SDS011;8570;52.380;4.654;2023-04-03T05:01:30;5.30;;;3.60;;
16906;SDS011;8570;52.380;4.654;2023-04-03T05:06:36;6.83;;;3.20;;
16906;SDS011;8570;52.380;4.654;2023-04-03T05:11:38;5.63;;;3.23;;
16906;SDS011;8570;52.380;4.654;2023-04-03T05:16:40;5.90;;;3.10;;
16906;SDS011;8570;52.380;4.654;2023-04-03T05:21:43;6.60;;;3.90;;
16906;SDS011;8570;52.380;4.654;2023-04-03T05:26:48;9.27;;;3.90;;
16906;SDS011;8570;52.380;4.654;2023-04-03T05:31:50;6.10;;;3.47;;
16906;SDS011;8570;52.380;4.654;2023-04-03T05:36:53;8.23;;;3.63;;
16906;SDS011;8570;52.380;4.654;2023-04-03T05:41:55;6.93;;;4.20;;
16906;SDS011;8570;52.380;4.654;2023-04-03T05:46:57;7.40;;;3.80;;
16906;SDS011;8570;52.380;4.654;2023-04-03T05:52:00;6.83;;;3.70;;
16906;SDS011;8570;52.380;4.654;2023-04-03T05:57:02;5.77;;;3.30;;
16906;SDS011;8570;52.380;4.654;2023-04-03T06:02:04;7.53;;;3.43;;
16906;SDS011;8570;52.380;4.654;2023-04-03T06:07:10;9.83;;;3.47;;
16906;SDS011;8570;52.380;4.654;2023-04-03T06:12:13;6.37;;;3.30;;
16906;SDS011;8570;52.380;4.654;2023-04-03T06:17:17;5.77;;;3.57;;
16906;SDS011;8570;52.380;4.654;2023-04-03T06:22:20;12.77;;;3.87;;
16906;SDS011;8570;52.380;4.654;2023-04-03T06:27:23;5.93;;;3.80;;
16906;SDS011;8570;52.380;4.654;2023-04-03T06:32:25;10.80;;;5.27;;
16906;SDS011;8570;52.380;4.654;2023-04-03T06:37:28;6.47;;;3.60;;
16906;SDS011;8570;52.380;4.654;2023-04-03T06:42:30;6.83;;;3.43;;
16906;SDS011;8570;52.380;4.654;2023-04-03T06:47:32;8.07;;;3.80;;
16906;SDS011;8570;52.380;4.654;2023-04-03T06:52:35;7.47;;;3.60;;
16906;SDS011;8570;52.380;4.654;2023-04-03T06:57:38;7.67;;;2.73;;
16906;SDS011;8570;52.380;4.654;2023-04-03T07:02:40;9.63;;;3.03;;
16906;SDS011;8570;52.380;4.654;2023-04-03T07:07:43;4.40;;;3.10;;
16906;SDS011;8570;52.380;4.654;2023-04-03T07:12:45;6.60;;;2.60;;
16906;SDS011;8570;52.380;4.654;2023-04-03T07:17:47;7.07;;;2.70;;
16906;SDS011;8570;52.380;4.654;2023-04-03T07:22:50;6.80;;;2.60;;
16906;SDS011;8570;52.380;4.654;2023-04-03T07:27:52;8.87;;;2.70;;
16906;SDS011;8570;52.380;4.654;2023-04-03T07:32:55;8.37;;;3.40;;
16906;SDS011;8570;52.380;4.654;2023-04-03T07:37:58;4.00;;;2.40;;
16906;SDS011;8570;52.380;4.654;2023-04-03T07:43:00;6.57;;;2.50;;
16906;SDS011;8570;52.380;4.654;2023-04-03T07:48:02;4.17;;;2.10;;
16906;SDS011;8570;52.380;4.654;2023-04-03T07:53:05;5.13;;;2.80;;
16906;SDS011;8570;52.380;4.654;2023-04-03T07:58:07;5.53;;;2.33;;
16906;SDS011;8570;52.380;4.654;2023-04-03T08:03:10;6.00;;;2.43;;
16906;SDS011;8570;52.380;4.654;2023-04-03T08:08:16;6.77;;;2.10;;
16906;SDS011;8570;52.380;4.654;2023-04-03T08:13:19;5.97;;;2.50;;
16906;SDS011;8570;52.380;4.654;2023-04-03T08:18:22;7.77;;;2.17;;
16906;SDS011;8570;52.380;4.654;2023-04-03T08:23:26;6.83;;;2.20;;
16906;SDS011;8570;52.380;4.654;2023-04-03T08:28:27;6.90;;;2.20;;
16906;SDS011;8570;52.380;4.654;2023-04-03T08:33:29;2.73;;;1.77;;
16906;SDS011;8570;52.380;4.654;2023-04-03T08:38:33;4.13;;;1.87;;
16906;SDS011;8570;52.380;4.654;2023-04-03T08:43:37;7.83;;;2.73;;
16906;SDS011;8570;52.380;4.654;2023-04-03T08:48:47;3.70;;;2.00;;
16906;SDS011;8570;52.380;4.654;2023-04-03T08:53:55;6.37;;;1.73;;
16906;SDS011;8570;52.380;4.654;2023-04-03T08:58:59;5.77;;;2.00;;
16906;SDS011;8570;52.380;4.654;2023-04-03T09:04:02;3.40;;;1.90;;
16906;SDS011;8570;52.380;4.654;2023-04-03T09:09:11;6.93;;;1.47;;
16906;SDS011;8570;52.380;4.654;2023-04-03T09:14:15;3.07;;;1.60;;
16906;SDS011;8570;52.380;4.654;2023-04-03T09:19:21;7.27;;;2.13;;
16906;SDS011;8570;52.380;4.654;2023-04-03T09:24:25;2.70;;;1.50;;
16906;SDS011;8570;52.380;4.654;2023-04-03T09:29:27;2.47;;;1.50;;
16906;SDS011;8570;52.380;4.654;2023-04-03T09:34:31;2.25;;;1.10;;
16906;SDS011;8570;52.380;4.654;2023-04-03T09:39:48;2.70;;;1.30;;
16906;SDS011;8570;52.380;4.654;2023-04-03T09:44:52;4.00;;;1.42;;
16906;SDS011;8570;52.380;4.654;2023-04-03T09:50:08;4.07;;;1.33;;
16906;SDS011;8570;52.380;4.654;2023-04-03T09:55:21;3.58;;;1.40;;
16906;SDS011;8570;52.380;4.654;2023-04-03T10:00:28;2.15;;;1.13;;
16906;SDS011;8570;52.380;4.654;2023-04-03T10:05:34;4.70;;;1.42;;
16906;SDS011;8570;52.380;4.654;2023-04-03T10:10:40;5.78;;;1.63;;
16906;SDS011;8570;52.380;4.654;2023-04-03T10:15:43;2.22;;;1.30;;
16906;SDS011;8570;52.380;4.654;2023-04-03T10:20:48;4.78;;;1.70;;
16906;SDS011;8570;52.380;4.654;2023-04-03T10:25:59;3.92;;;1.55;;
16906;SDS011;8570;52.380;4.654;2023-04-03T10:31:09;4.88;;;1.25;;
16906;SDS011;8570;52.380;4.654;2023-04-03T10:36:19;2.33;;;1.08;;
16906;SDS011;8570;52.380;4.654;2023-04-03T10:41:33;3.42;;;1.00;;
16906;SDS011;8570;52.380;4.654;2023-04-03T10:46:41;2.47;;;1.20;;
16906;SDS011;8570;52.380;4.654;2023-04-03T10:51:49;2.10;;;1.17;;
16906;SDS011;8570;52.380;4.654;2023-04-03T10:57:03;4.68;;;1.30;;
16906;SDS011;8570;52.380;4.654;2023-04-03T11:02:07;3.63;;;1.10;;
16906;SDS011;8570;52.380;4.654;2023-04-03T11:07:19;3.88;;;1.25;;
16906;SDS011;8570;52.380;4.654;2023-04-03T11:12:25;6.30;;;1.40;;
16906;SDS011;8570;52.380;4.654;2023-04-03T11:17:35;3.92;;;1.25;;
16906;SDS011;8570;52.380;4.654;2023-04-03T11:22:43;3.40;;;0.93;;
16906;SDS011;8570;52.380;4.654;2023-04-03T11:27:54;2.60;;;1.20;;
16906;SDS011;8570;52.380;4.654;2023-04-03T11:33:10;3.00;;;1.35;;
16906;SDS011;8570;52.380;4.654;2023-04-03T11:38:33;1.60;;;1.00;;
16906;SDS011;8570;52.380;4.654;2023-04-03T11:43:41;1.95;;;1.10;;
16906;SDS011;8570;52.380;4.654;2023-04-03T11:48:56;1.98;;;1.05;;
16906;SDS011;8570;52.380;4.654;2023-04-03T11:54:04;2.22;;;1.20;;
16906;SDS011;8570;52.380;4.654;2023-04-03T11:59:46;2.85;;;1.17;;
16906;SDS011;8570;52.380;4.654;2023-04-03T12:10:24;2.00;;;1.00;;
16906;SDS011;8570;52.380;4.654;2023-04-03T12:15:47;2.10;;;1.10;;
16906;SDS011;8570;52.380;4.654;2023-04-03T12:20:56;3.05;;;1.40;;
16906;SDS011;8570;52.380;4.654;2023-04-03T12:26:03;2.17;;;1.13;;
16906;SDS011;8570;52.380;4.654;2023-04-03T12:31:07;2.35;;;1.13;;
16906;SDS011;8570;52.380;4.654;2023-04-03T12:36:11;1.67;;;1.00;;
16906;SDS011;8570;52.380;4.654;2023-04-03T12:41:23;2.92;;;1.27;;
16906;SDS011;8570;52.380;4.654;2023-04-03T12:46:35;1.63;;;0.90;;
16906;SDS011;8570;52.380;4.654;2023-04-03T12:51:40;3.05;;;1.10;;
16906;SDS011;8570;52.380;4.654;2023-04-03T12:56:46;1.98;;;1.10;;
16906;SDS011;8570;52.380;4.654;2023-04-03T13:01:55;3.88;;;1.13;;
16906;SDS011;8570;52.380;4.654;2023-04-03T13:06:58;1.35;;;0.98;;
16906;SDS011;8570;52.380;4.654;2023-04-03T13:12:03;2.28;;;1.08;;
16906;SDS011;8570;52.380;4.654;2023-04-03T13:17:12;3.05;;;0.98;;
16906;SDS011;8570;52.380;4.654;2023-04-03T13:22:20;3.33;;;0.90;;
16906;SDS011;8570;52.380;4.654;2023-04-03T13:27:28;2.42;;;1.30;;
16906;SDS011;8570;52.380;4.654;2023-04-03T13:32:31;1.65;;;1.10;;
16906;SDS011;8570;52.380;4.654;2023-04-03T13:37:34;5.07;;;1.10;;
16906;SDS011;8570;52.380;4.654;2023-04-03T13:42:38;5.43;;;1.35;;
16906;SDS011;8570;52.380;4.654;2023-04-03T13:47:41;2.78;;;1.20;;
16906;SDS011;8570;52.380;4.654;2023-04-03T13:52:46;4.00;;;1.35;;
16906;SDS011;8570;52.380;4.654;2023-04-03T13:57:55;1.75;;;1.20;;
16906;SDS011;8570;52.380;4.654;2023-04-03T14:02:58;1.98;;;1.20;;
16906;SDS011;8570;52.380;4.654;2023-04-03T14:08:00;3.17;;;1.35;;
16906;SDS011;8570;52.380;4.654;2023-04-03T14:13:04;1.95;;;1.10;;
16906;SDS011;8570;52.380;4.654;2023-04-03T14:18:06;2.97;;;1.55;;
16906;SDS011;8570;52.380;4.654;2023-04-03T14:33:29;2.05;;;1.50;;
16906;SDS011;8570;52.380;4.654;2023-04-03T14:38:34;2.35;;;1.20;;
16906;SDS011;8570;52.380;4.654;2023-04-03T14:43:36;2.15;;;1.23;;
16906;SDS011;8570;52.380;4.654;2023-04-03T14:53:50;4.35;;;1.40;;
16906;SDS011;8570;52.380;4.654;2023-04-03T14:58:54;2.20;;;1.20;;
16906;SDS011;8570;52.380;4.654;2023-04-03T15:03:58;2.33;;;1.65;;
16906;SDS011;8570;52.380;4.654;2023-04-03T15:09:01;3.03;;;1.35;;
16906;SDS011;8570;52.380;4.654;2023-04-03T15:14:04;4.03;;;1.40;;
16906;SDS011;8570;52.380;4.654;2023-04-03T15:19:06;3.72;;;1.60;;
16906;SDS011;8570;52.380;4.654;2023-04-03T15:29:28;5.90;;;1.75;;
16906;SDS011;8570;52.380;4.654;2023-04-03T15:34:39;3.47;;;1.83;;
16906;SDS011;8570;52.380;4.654;2023-04-03T15:39:43;3.20;;;1.55;;
16906;SDS011;8570;52.380;4.654;2023-04-03T15:44:45;1.85;;;1.30;;
16906;SDS011;8570;52.380;4.654;2023-04-03T15:49:49;2.75;;;1.33;;
16906;SDS011;8570;52.380;4.654;2023-04-03T15:54:53;1.85;;;1.30;;
16906;SDS011;8570;52.380;4.654;2023-04-03T15:59:55;4.65;;;1.45;;
16906;SDS011;8570;52.380;4.654;2023-04-03T16:04:57;4.68;;;1.58;;
16906;SDS011;8570;52.380;4.654;2023-04-03T16:10:01;4.00;;;1.52;;
16906;SDS011;8570;52.380;4.654;2023-04-03T16:15:03;3.05;;;1.70;;
16906;SDS011;8570;52.380;4.654;2023-04-03T16:20:07;7.57;;;1.50;;
16906;SDS011;8570;52.380;4.654;2023-04-03T16:25:15;3.28;;;1.40;;
16906;SDS011;8570;52.380;4.654;2023-04-03T16:30:38;1.65;;;1.27;;
16906;SDS011;8570;52.380;4.654;2023-04-03T16:35:41;4.32;;;1.45;;
16906;SDS011;8570;52.380;4.654;2023-04-03T16:40:46;2.38;;;1.20;;
16906;SDS011;8570;52.380;4.654;2023-04-03T16:45:52;4.47;;;1.88;;
16906;SDS011;8570;52.380;4.654;2023-04-03T16:50:56;3.25;;;1.90;;
16906;SDS011;8570;52.380;4.654;2023-04-03T16:56:07;3.35;;;1.42;;
16906;SDS011;8570;52.380;4.654;2023-04-03T17:01:16;5.15;;;1.90;;
16906;SDS011;8570;52.380;4.654;2023-04-03T17:06:30;3.00;;;1.73;;
16906;SDS011;8570;52.380;4.654;2023-04-03T17:11:33;5.70;;;1.98;;
16906;SDS011;8570;52.380;4.654;2023-04-03T17:16:35;3.60;;;1.90;;
16906;SDS011;8570;52.380;4.654;2023-04-03T17:21:59;2.58;;;1.38;;
16906;SDS011;8570;52.380;4.654;2023-04-03T17:27:12;2.83;;;1.83;;
16906;SDS011;8570;52.380;4.654;2023-04-03T17:32:14;5.03;;;1.80;;
16906;SDS011;8570;52.380;4.654;2023-04-03T17:37:16;6.70;;;1.90;;
16906;SDS011;8570;52.380;4.654;2023-04-03T17:42:19;3.60;;;2.00;;
16906;SDS011;8570;52.380;4.654;2023-04-03T17:47:23;3.80;;;2.03;;
16906;SDS011;8570;52.380;4.654;2023-04-03T17:52:25;6.07;;;2.30;;
16906;SDS011;8570;52.380;4.654;2023-04-03T17:57:29;6.53;;;3.65;;
16906;SDS011;8570;52.380;4.654;2023-04-03T18:02:31;5.85;;;2.10;;
16906;SDS011;8570;52.380;4.654;2023-04-03T18:07:33;3.80;;;1.77;;
16906;SDS011;8570;52.380;4.654;2023-04-03T18:12:37;4.53;;;1.85;;
16906;SDS011;8570;52.380;4.654;2023-04-03T18:17:41;5.67;;;2.20;;
16906;SDS011;8570;52.380;4.654;2023-04-03T18:22:43;4.78;;;1.67;;
16906;SDS011;8570;52.380;4.654;2023-04-03T18:27:48;3.08;;;2.10;;
16906;SDS011;8570;52.380;4.654;2023-04-03T18:32:50;4.93;;;1.70;;
16906;SDS011;8570;52.380;4.654;2023-04-03T18:37:52;3.10;;;1.77;;
16906;SDS011;8570;52.380;4.654;2023-04-03T18:42:56;5.03;;;2.20;;
16906;SDS011;8570;52.380;4.654;2023-04-03T18:47:58;4.70;;;2.03;;
16906;SDS011;8570;52.380;4.654;2023-04-03T18:53:00;3.70;;;1.77;;
16906;SDS011;8570;52.380;4.654;2023-04-03T18:58:03;5.07;;;1.70;;
16906;SDS011;8570;52.380;4.654;2023-04-03T19:03:05;4.93;;;1.83;;
16906;SDS011;8570;52.380;4.654;2023-04-03T19:08:07;4.83;;;2.43;;
16906;SDS011;8570;52.380;4.654;2023-04-03T19:13:12;3.63;;;1.87;;
16906;SDS011;8570;52.380;4.654;2023-04-03T19:18:14;3.30;;;1.90;;
16906;SDS011;8570;52.380;4.654;2023-04-03T19:23:16;4.20;;;2.20;;
16906;SDS011;8570;52.380;4.654;2023-04-03T19:28:22;5.27;;;2.80;;
16906;SDS011;8570;52.380;4.654;2023-04-03T19:33:25;5.60;;;3.07;;
16906;SDS011;8570;52.380;4.654;2023-04-03T19:38:27;6.93;;;3.17;;
16906;SDS011;8570;52.380;4.654;2023-04-03T19:43:31;4.77;;;2.20;;
16906;SDS011;8570;52.380;4.654;2023-04-03T19:48:33;2.77;;;1.90;;
16906;SDS011;8570;52.380;4.654;2023-04-03T19:53:35;4.87;;;1.90;;
16906;SDS011;8570;52.380;4.654;2023-04-03T19:58:38;3.87;;;1.97;;
16906;SDS011;8570;52.380;4.654;2023-04-03T20:03:40;2.80;;;1.80;;
16906;SDS011;8570;52.380;4.654;2023-04-03T20:08:42;8.73;;;3.70;;
16906;SDS011;8570;52.380;4.654;2023-04-03T20:13:48;3.93;;;2.50;;
16906;SDS011;8570;52.380;4.654;2023-04-03T20:18:51;5.07;;;2.60;;
16906;SDS011;8570;52.380;4.654;2023-04-03T20:23:54;4.40;;;2.30;;
16906;SDS011;8570;52.380;4.654;2023-04-03T20:28:58;5.00;;;2.33;;
16906;SDS011;8570;52.380;4.654;2023-04-03T20:34:01;5.13;;;2.87;;
16906;SDS011;8570;52.380;4.654;2023-04-03T20:39:03;4.83;;;3.20;;
16906;SDS011;8570;52.380;4.654;2023-04-03T20:44:07;5.57;;;3.00;;
16906;SDS011;8570;52.380;4.654;2023-04-03T20:49:09;5.10;;;2.63;;
16906;SDS011;8570;52.380;4.654;2023-04-03T20:54:11;5.97;;;3.20;;
16906;SDS011;8570;52.380;4.654;2023-04-03T20:59:15;10.97;;;4.10;;
16906;SDS011;8570;52.380;4.654;2023-04-03T21:04:19;5.63;;;3.17;;
16906;SDS011;8570;52.380;4.654;2023-04-03T21:20:45;4.63;;;2.53;;
16906;SDS011;8570;52.380;4.654;2023-04-03T21:25:47;5.20;;;2.00;;
16906;SDS011;8570;52.380;4.654;2023-04-03T21:30:49;6.27;;;2.33;;
16906;SDS011;8570;52.380;4.654;2023-04-03T21:35:52;3.30;;;2.23;;
16906;SDS011;8570;52.380;4.654;2023-04-03T21:40:57;5.87;;;2.63;;
16906;SDS011;8570;52.380;4.654;2023-04-03T21:45:59;8.50;;;4.00;;
16906;SDS011;8570;52.380;4.654;2023-04-03T21:51:03;8.57;;;3.57;;
16906;SDS011;8570;52.380;4.654;2023-04-03T21:56:06;8.90;;;2.40;;
16906;SDS011;8570;52.380;4.654;2023-04-03T22:01:08;6.13;;;2.20;;
16906;SDS011;8570;52.380;4.654;2023-04-03T22:06:12;6.60;;;2.30;;
16906;SDS011;8570;52.380;4.654;2023-04-03T22:11:15;6.50;;;3.10;;
16906;SDS011;8570;52.380;4.654;2023-04-03T22:16:17;4.93;;;2.67;;
16906;SDS011;8570;52.380;4.654;2023-04-03T22:21:23;5.93;;;2.27;;
16906;SDS011;8570;52.380;4.654;2023-04-03T22:26:26;4.60;;;2.43;;
16906;SDS011;8570;52.380;4.654;2023-04-03T22:31:29;5.03;;;2.40;;
16906;SDS011;8570;52.380;4.654;2023-04-03T22:36:33;5.90;;;2.70;;
16906;SDS011;8570;52.380;4.654;2023-04-03T22:41:35;3.17;;;2.20;;
16906;SDS011;8570;52.380;4.654;2023-04-03T22:46:37;4.27;;;2.20;;
16906;SDS011;8570;52.380;4.654;2023-04-03T22:51:41;3.83;;;2.40;;
16906;SDS011;8570;52.380;4.654;2023-04-03T22:56:43;3.67;;;2.13;;
16906;SDS011;8570;52.380;4.654;2023-04-03T23:01:45;3.00;;;1.77;;
16906;SDS011;8570;52.380;4.654;2023-04-03T23:06:48;4.67;;;2.17;;
16906;SDS011;8570;52.380;4.654;2023-04-03T23:11:50;3.77;;;2.00;;
16906;SDS011;8570;52.380;4.654;2023-04-03T23:16:52;4.17;;;1.93;;
16906;SDS011;8570;52.380;4.654;2023-04-03T23:22:02;5.83;;;2.83;;
16906;SDS011;8570;52.380;4.654;2023-04-03T23:27:03;3.83;;;1.73;;
16906;SDS011;8570;52.380;4.654;2023-04-03T23:32:06;3.07;;;1.90;;
16906;SDS011;8570;52.380;4.654;2023-04-03T23:37:11;3.10;;;1.70;;
16906;SDS011;8570;52.380;4.654;2023-04-03T23:42:13;4.23;;;2.17;;
16906;SDS011;8570;52.380;4.654;2023-04-03T23:47:16;3.80;;;1.80;;
16906;SDS011;8570;52.380;4.654;2023-04-03T23:52:19;7.87;;;3.67;;
16906;SDS011;8570;52.380;4.654;2023-04-03T23:57:21;5.20;;;2.60;;
